createdAt,value
2022-11-15T00:01:02.996Z,17.60
2022-11-15T00:03:34.208Z,18.50
2022-11-15T00:06:07.025Z,20.30
2022-11-15T00:08:38.290Z,17.50
2022-11-15T00:11:12.137Z,21.30
2022-11-15T00:13:43.339Z,21.90
2022-11-15T00:16:14.255Z,21.00
2022-11-15T00:18:50.415Z,20.00
2022-11-15T00:21:21.804Z,17.60
2022-11-15T00:23:52.920Z,19.70
2022-11-15T00:26:23.822Z,20.50
2022-11-15T00:28:56.612Z,19.50
2022-11-15T00:31:27.570Z,19.80
2022-11-15T00:33:58.331Z,20.00
2022-11-15T00:36:29.103Z,20.90
2022-11-15T00:39:00.103Z,21.10
2022-11-15T00:41:31.218Z,22.40
2022-11-15T00:44:02.232Z,21.30
2022-11-15T00:46:32.979Z,21.30
2022-11-15T00:49:04.246Z,19.80
2022-11-15T00:51:35.225Z,20.40
2022-11-15T00:54:08.835Z,20.50
2022-11-15T00:56:39.983Z,21.10
2022-11-15T00:59:10.981Z,20.80
2022-11-15T01:01:41.746Z,19.50
2022-11-15T01:04:12.894Z,19.70
2022-11-15T01:06:44.188Z,18.00
2022-11-15T01:09:15.681Z,21.20
2022-11-15T01:11:46.969Z,20.50
2022-11-15T01:14:22.797Z,20.00
2022-11-15T01:16:56.252Z,21.10
2022-11-15T01:19:27.347Z,20.30
2022-11-15T01:21:58.195Z,20.10
2022-11-15T01:24:29.138Z,19.60
2022-11-15T01:27:00.329Z,19.30
2022-11-15T01:32:01.046Z,20.00
2022-11-15T01:34:32.180Z,20.60
2022-11-15T01:37:03.231Z,19.10
2022-11-15T01:42:03.779Z,17.10
2022-11-15T01:44:43.946Z,19.10
2022-11-15T01:47:18.492Z,20.70
2022-11-15T01:49:56.456Z,18.20
2022-11-15T01:52:30.144Z,18.70
2022-11-15T01:55:06.996Z,16.40
2022-11-15T01:57:38.203Z,17.50
2022-11-15T02:00:11.932Z,17.70
2022-11-15T02:02:42.833Z,17.90
2022-11-15T02:05:14.032Z,18.60
2022-11-15T02:07:45.264Z,16.80
2022-11-15T02:10:20.109Z,18.50
2022-11-15T02:12:52.645Z,17.90
2022-11-15T02:15:26.460Z,18.70
2022-11-15T02:18:13.591Z,19.90
2022-11-15T02:20:54.143Z,19.30
2022-11-15T02:23:54.819Z,15.60
2022-11-15T02:27:14.500Z,16.30
2022-11-15T02:30:05.873Z,18.10
2022-11-15T02:32:44.034Z,16.60
2022-11-15T02:35:26.235Z,16.70
2022-11-15T02:38:01.854Z,17.30
2022-11-15T02:40:41.271Z,16.30
2022-11-15T02:43:34.046Z,15.90
2022-11-15T02:46:10.899Z,17.40
2022-11-15T02:48:43.747Z,17.30
2022-11-15T02:51:15.786Z,15.00
2022-11-15T02:53:46.788Z,14.90
2022-11-15T02:56:17.749Z,16.00
2022-11-15T02:59:24.902Z,19.30
2022-11-15T03:02:12.369Z,16.90
2022-11-15T03:04:54.175Z,16.50
2022-11-15T03:07:31.921Z,15.90
2022-11-15T03:10:08.783Z,15.70
2022-11-15T03:12:49.086Z,15.20
2022-11-15T03:15:23.626Z,15.80
2022-11-15T03:17:59.914Z,16.00
2022-11-15T03:20:33.583Z,13.80
2022-11-15T03:23:09.071Z,14.20
2022-11-15T03:25:44.106Z,14.00
2022-11-15T03:28:19.806Z,14.80
2022-11-15T03:30:52.278Z,13.20
2022-11-15T03:33:25.084Z,14.00
2022-11-15T03:35:57.166Z,13.40
2022-11-15T03:38:32.931Z,16.00
2022-11-15T03:41:07.282Z,15.90
2022-11-15T03:43:45.101Z,14.60
2022-11-15T03:46:22.121Z,14.40
2022-11-15T03:48:56.427Z,14.60
2022-11-15T03:51:27.590Z,14.90
2022-11-15T03:53:58.575Z,15.00
2022-11-15T03:56:29.626Z,15.80
2022-11-15T03:59:00.672Z,15.30
2022-11-15T04:01:31.653Z,16.10
2022-11-15T04:04:02.739Z,16.00
2022-11-15T04:06:33.894Z,16.60
2022-11-15T04:09:05.340Z,16.10
2022-11-15T04:11:36.350Z,15.30
2022-11-15T04:14:07.319Z,15.10
2022-11-15T04:16:43.596Z,16.00
2022-11-15T04:19:32.364Z,16.00
2022-11-15T04:22:20.723Z,15.80
2022-11-15T04:24:51.752Z,16.30
2022-11-15T04:27:22.856Z,16.90
2022-11-15T04:29:53.816Z,16.30
2022-11-15T04:32:24.878Z,15.30
2022-11-15T04:34:55.806Z,16.10
2022-11-15T04:37:26.604Z,16.30
2022-11-15T04:39:57.594Z,15.60
2022-11-15T04:42:28.505Z,14.80
2022-11-15T04:44:59.490Z,15.10
2022-11-15T04:47:30.575Z,13.40
2022-11-15T04:50:01.836Z,14.80
2022-11-15T04:52:32.820Z,14.50
2022-11-15T04:55:07.932Z,13.20
2022-11-15T04:57:39.847Z,13.30
2022-11-15T05:00:14.201Z,14.40
2022-11-15T05:03:22.647Z,14.00
2022-11-15T05:05:53.660Z,14.20
2022-11-15T05:08:24.475Z,14.90
2022-11-15T05:10:55.503Z,13.90
2022-11-15T05:13:26.359Z,13.40
2022-11-15T05:15:57.219Z,17.70
2022-11-15T05:18:28.702Z,16.20
2022-11-15T05:21:04.838Z,14.50
2022-11-15T05:23:35.853Z,13.40
2022-11-15T05:26:09.475Z,13.20
2022-11-15T05:28:40.986Z,16.90
2022-11-15T05:31:13.030Z,15.40
2022-11-15T05:33:45.419Z,16.10
2022-11-15T05:36:21.156Z,13.00
2022-11-15T05:39:10.572Z,13.40
2022-11-15T05:41:45.824Z,12.60
2022-11-15T05:44:19.929Z,11.60
2022-11-15T05:46:54.631Z,11.60
2022-11-15T05:49:31.493Z,11.70
2022-11-15T05:52:05.532Z,11.80
2022-11-15T05:54:37.994Z,12.30
2022-11-15T05:57:09.436Z,12.20
2022-11-15T05:59:41.942Z,12.90
2022-11-15T06:02:13.554Z,13.20
2022-11-15T06:04:44.356Z,15.20
2022-11-15T06:07:15.169Z,13.20
2022-11-15T06:09:46.020Z,15.90
2022-11-15T06:12:17.086Z,20.40
2022-11-15T06:14:47.951Z,18.00
2022-11-15T06:17:18.700Z,13.90
2022-11-15T06:19:49.610Z,14.10
2022-11-15T06:22:20.621Z,14.40
2022-11-15T06:24:51.431Z,13.20
2022-11-15T06:27:22.274Z,19.60
2022-11-15T06:29:53.399Z,15.70
2022-11-15T06:32:24.955Z,14.90
2022-11-15T06:34:55.803Z,14.70
2022-11-15T06:37:26.845Z,12.70
2022-11-15T06:39:57.898Z,12.20
2022-11-15T06:42:28.770Z,12.70
2022-11-15T06:44:59.732Z,13.40
2022-11-15T06:47:30.618Z,12.90
2022-11-15T06:50:01.697Z,12.70
2022-11-15T06:52:34.225Z,13.40
2022-11-15T06:55:05.642Z,12.10
2022-11-15T06:57:36.587Z,12.10
2022-11-15T07:00:09.009Z,12.10
2022-11-15T07:02:40.283Z,12.30
2022-11-15T07:05:12.331Z,13.90
2022-11-15T07:07:43.365Z,13.90
2022-11-15T07:12:43.895Z,15.70
2022-11-15T07:15:14.876Z,15.60
2022-11-15T07:17:46.022Z,15.20
2022-11-15T07:20:18.389Z,16.50
2022-11-15T07:22:49.766Z,17.30
2022-11-15T07:25:21.027Z,15.30
2022-11-15T07:27:59.378Z,14.50
2022-11-15T07:30:31.233Z,15.00
2022-11-15T07:33:03.553Z,14.30
2022-11-15T07:35:34.497Z,15.00
2022-11-15T07:38:06.422Z,15.20
2022-11-15T07:40:37.420Z,17.40
2022-11-15T07:43:12.130Z,17.40
2022-11-15T07:45:46.256Z,14.30
2022-11-15T07:48:17.269Z,14.10
2022-11-15T07:50:48.716Z,13.80
2022-11-15T07:53:19.757Z,13.50
2022-11-15T07:55:50.490Z,14.40
2022-11-15T07:58:21.678Z,14.30
2022-11-15T08:00:52.610Z,14.40
2022-11-15T08:03:23.538Z,13.30
2022-11-15T08:05:55.375Z,16.40
2022-11-15T08:08:26.616Z,15.20
2022-11-15T08:10:59.194Z,15.30
2022-11-15T08:13:30.249Z,14.90
2022-11-15T08:16:03.897Z,14.90
2022-11-15T08:18:34.908Z,15.70
2022-11-15T08:21:06.493Z,14.00
2022-11-15T08:23:37.908Z,17.70
2022-11-15T08:26:09.078Z,18.10
2022-11-15T08:28:40.071Z,18.40
2022-11-15T08:31:17.662Z,19.40
2022-11-15T08:33:49.069Z,19.80
2022-11-15T08:36:20.423Z,18.70
2022-11-15T08:41:26.991Z,16.60
2022-11-15T08:43:57.842Z,17.90
2022-11-15T08:46:28.834Z,17.40
2022-11-15T08:51:29.753Z,19.00
2022-11-15T08:54:00.860Z,20.00
2022-11-15T08:56:31.865Z,19.40
2022-11-15T08:59:02.888Z,19.60
2022-11-15T09:01:36.735Z,19.20
2022-11-15T09:04:07.937Z,19.30
2022-11-15T09:06:43.082Z,19.40
2022-11-15T09:09:14.553Z,17.90
2022-11-15T09:11:45.435Z,19.10
2022-11-15T09:14:17.624Z,19.80
2022-11-15T09:16:48.534Z,16.60
2022-11-15T09:19:19.830Z,12.40
2022-11-15T09:21:50.944Z,15.00
2022-11-15T09:24:22.186Z,13.70
2022-11-15T09:29:24.493Z,12.90
2022-11-15T09:31:56.977Z,13.50
2022-11-15T09:34:28.089Z,13.30
2022-11-15T09:36:59.019Z,13.40
2022-11-15T09:42:32.644Z,13.20
2022-11-15T09:45:17.119Z,12.80
2022-11-15T09:48:02.199Z,14.40
2022-11-15T09:50:38.954Z,14.70
2022-11-15T09:53:15.784Z,15.00
2022-11-15T09:56:02.520Z,13.30
2022-11-15T09:58:42.170Z,13.70
2022-11-15T10:01:22.105Z,14.40
2022-11-15T10:03:53.424Z,13.50
2022-11-15T10:06:27.706Z,14.80
2022-11-15T10:09:03.752Z,12.90
2022-11-15T10:11:38.965Z,12.80
2022-11-15T10:14:15.890Z,16.90
2022-11-15T10:17:13.608Z,14.60
2022-11-15T10:19:54.866Z,15.60
2022-11-15T10:22:32.075Z,15.90
2022-11-15T10:25:18.356Z,14.20
2022-11-15T10:27:55.806Z,13.30
2022-11-15T10:30:32.674Z,15.10
2022-11-15T10:33:18.512Z,14.50
2022-11-15T10:35:49.400Z,14.90
2022-11-15T10:38:20.183Z,16.70
2022-11-15T10:41:08.238Z,15.70
2022-11-15T10:43:39.499Z,15.70
2022-11-15T10:46:45.510Z,13.20
2022-11-15T10:49:19.146Z,13.50
2022-11-15T10:51:53.484Z,14.80
2022-11-15T10:54:29.687Z,15.50
2022-11-15T10:57:07.065Z,17.50
2022-11-15T11:02:30.319Z,16.80
2022-11-15T11:05:02.268Z,18.10
2022-11-15T11:07:35.880Z,20.50
2022-11-15T11:10:49.941Z,17.60
2022-11-15T11:13:24.042Z,16.40
2022-11-15T11:18:37.002Z,16.90
2022-11-15T11:21:13.681Z,18.90
2022-11-15T11:23:54.075Z,16.20
2022-11-15T11:26:42.901Z,18.00
2022-11-15T11:29:28.402Z,16.30
2022-11-15T11:32:05.335Z,14.40
2022-11-15T11:34:49.673Z,14.90
2022-11-15T11:37:33.108Z,17.20
2022-11-15T11:40:16.483Z,16.00
2022-11-15T11:43:00.244Z,15.20
2022-11-15T11:45:50.893Z,15.30
2022-11-15T11:48:41.291Z,15.30
2022-11-15T11:51:18.766Z,14.80
2022-11-15T11:53:57.087Z,12.90
2022-11-15T11:56:31.214Z,15.20
2022-11-15T11:59:21.388Z,26.50
2022-11-15T12:01:52.486Z,15.50
2022-11-15T12:04:31.509Z,16.00
2022-11-15T12:07:07.816Z,13.70
2022-11-15T12:09:43.671Z,17.10
2022-11-15T12:12:25.342Z,16.50
2022-11-15T12:14:59.711Z,18.80
2022-11-15T12:17:37.317Z,14.80
2022-11-15T12:20:20.716Z,14.70
2022-11-15T12:22:58.109Z,14.80
2022-11-15T12:25:35.603Z,14.80
2022-11-15T12:28:17.744Z,15.80
2022-11-15T12:30:53.151Z,16.70
2022-11-15T12:33:44.741Z,16.00
2022-11-15T12:36:36.785Z,17.60
2022-11-15T12:39:09.948Z,15.50
2022-11-15T12:41:42.357Z,16.40
2022-11-15T12:44:34.951Z,16.40
2022-11-15T12:47:24.577Z,15.00
2022-11-15T12:49:55.877Z,14.70
2022-11-15T12:52:27.263Z,15.60
2022-11-15T12:55:06.279Z,14.20
2022-11-15T12:57:42.729Z,15.90
2022-11-15T13:00:41.129Z,16.30
2022-11-15T13:03:30.141Z,18.30
2022-11-15T13:06:27.769Z,15.90
2022-11-15T13:08:58.682Z,16.00
2022-11-15T13:14:46.670Z,15.80
2022-11-15T13:17:38.850Z,18.30
2022-11-15T13:20:24.532Z,19.40
2022-11-15T13:23:03.327Z,19.40
2022-11-15T13:26:05.771Z,19.80
2022-11-15T13:28:39.095Z,20.30
2022-11-15T13:31:24.932Z,20.50
2022-11-15T13:33:58.326Z,21.90
2022-11-15T13:36:34.179Z,21.10
2022-11-15T13:39:08.137Z,19.70
2022-11-15T13:41:47.456Z,19.70
2022-11-15T13:44:26.059Z,20.40
2022-11-15T13:47:08.503Z,20.50
2022-11-15T13:49:39.381Z,22.00
2022-11-15T13:54:45.633Z,20.80
2022-11-15T13:57:21.420Z,18.70
2022-11-15T13:59:55.072Z,20.80
2022-11-15T14:02:32.267Z,20.80
2022-11-15T14:05:13.925Z,22.30
2022-11-15T14:07:57.414Z,20.40
2022-11-15T14:10:34.302Z,18.10
2022-11-15T14:13:06.199Z,16.20
2022-11-15T14:15:38.971Z,16.70
2022-11-15T14:18:34.887Z,18.60
2022-11-15T14:21:10.754Z,19.30
2022-11-15T14:23:44.271Z,17.80
2022-11-15T14:26:32.386Z,19.80
2022-11-15T14:29:26.569Z,18.40
2022-11-15T14:32:08.446Z,19.10
2022-11-15T14:34:39.434Z,17.60
2022-11-15T14:37:18.802Z,17.30
2022-11-15T14:39:58.705Z,19.00
2022-11-15T14:42:32.013Z,19.80
2022-11-15T14:45:04.215Z,17.20
2022-11-15T14:47:35.342Z,21.50
2022-11-15T14:50:07.639Z,18.50
2022-11-15T14:52:38.495Z,20.30
2022-11-15T14:55:19.231Z,18.20
2022-11-15T14:57:50.359Z,19.50
2022-11-15T15:00:22.640Z,19.50
2022-11-15T15:02:56.112Z,18.20
2022-11-15T15:05:34.045Z,20.20
2022-11-15T15:08:06.406Z,19.50
2022-11-15T15:10:40.935Z,19.90
2022-11-15T15:13:19.960Z,20.10
2022-11-15T15:15:52.600Z,25.30
2022-11-15T15:18:23.812Z,22.30
2022-11-15T15:21:01.096Z,21.00
2022-11-15T15:23:32.442Z,20.80
2022-11-15T15:28:34.896Z,32.20
2022-11-15T15:31:08.496Z,32.60
2022-11-15T15:33:39.872Z,23.00
2022-11-15T15:36:13.111Z,19.60
2022-11-15T15:38:44.136Z,20.00
2022-11-15T15:41:16.418Z,19.70
2022-11-15T15:43:48.491Z,18.40
2022-11-15T15:46:20.753Z,17.10
2022-11-15T15:48:51.841Z,24.70
2022-11-15T15:51:22.837Z,38.40
2022-11-15T15:56:25.050Z,24.00
2022-11-15T15:58:56.555Z,27.00
2022-11-15T16:01:27.852Z,35.60
2022-11-15T16:03:58.855Z,31.30
2022-11-15T16:06:45.173Z,21.30
2022-11-15T16:09:18.720Z,21.70
2022-11-15T16:11:50.535Z,25.00
2022-11-15T16:14:21.665Z,24.90
2022-11-15T16:19:22.012Z,26.50
2022-11-15T16:21:53.988Z,25.20
2022-11-15T16:24:24.952Z,22.70
2022-11-15T16:26:55.938Z,22.60
2022-11-15T16:29:27.602Z,23.80
2022-11-15T16:31:58.902Z,22.90
2022-11-15T16:34:32.972Z,20.50
2022-11-15T16:37:05.869Z,21.70
2022-11-15T16:42:06.545Z,20.00
2022-11-15T16:44:37.549Z,21.40
2022-11-15T16:47:14.033Z,21.40
2022-11-15T16:49:46.420Z,21.30
2022-11-15T16:52:21.329Z,19.90
2022-11-15T16:54:53.061Z,20.40
2022-11-15T16:57:23.898Z,20.80
2022-11-15T16:59:55.141Z,18.30
2022-11-15T17:02:26.049Z,20.70
2022-11-15T17:07:26.546Z,20.00
2022-11-15T17:09:57.519Z,20.80
2022-11-15T17:12:28.719Z,20.30
2022-11-15T17:14:59.833Z,20.20
2022-11-15T17:17:31.182Z,21.90
2022-11-15T17:20:05.176Z,22.40
2022-11-15T17:22:36.350Z,21.00
2022-11-15T17:30:08.423Z,19.00
2022-11-15T17:32:40.092Z,19.90
2022-11-15T17:35:15.525Z,20.40
2022-11-15T17:37:48.344Z,17.90
2022-11-15T17:40:19.713Z,25.80
2022-11-15T17:42:50.731Z,27.90
2022-11-15T17:45:21.836Z,26.10
2022-11-15T17:47:53.786Z,21.60
2022-11-15T17:50:25.028Z,25.30
2022-11-15T17:55:26.013Z,21.10
2022-11-15T18:00:26.318Z,20.20
2022-11-15T18:02:59.407Z,22.50
2022-11-15T18:05:30.400Z,20.10
2022-11-15T18:08:01.443Z,21.50
2022-11-15T18:10:32.734Z,21.10
2022-11-15T18:13:03.613Z,23.40
2022-11-15T18:15:34.582Z,20.40
2022-11-15T18:20:35.377Z,19.90
2022-11-15T18:23:06.707Z,20.70
2022-11-15T18:25:37.715Z,21.90
2022-11-15T18:28:08.756Z,21.10
2022-11-15T18:33:10.606Z,19.80
2022-11-15T18:35:41.738Z,19.80
2022-11-15T18:38:12.660Z,20.00
2022-11-15T18:40:43.814Z,21.30
2022-11-15T18:43:14.733Z,23.50
2022-11-15T18:45:45.690Z,20.00
2022-11-15T18:48:16.903Z,20.60
2022-11-15T18:53:18.670Z,21.00
2022-11-15T18:55:49.784Z,23.10
2022-11-15T18:58:23.027Z,18.20
2022-11-15T19:03:23.581Z,17.80
2022-11-15T19:06:01.514Z,19.40
2022-11-15T19:08:35.376Z,19.00
2022-11-15T19:11:10.355Z,24.50
2022-11-15T19:13:41.706Z,20.80
2022-11-15T19:16:14.978Z,24.20
2022-11-15T19:18:46.012Z,22.50
2022-11-15T19:21:17.823Z,44.80
2022-11-15T19:23:48.833Z,107.00
2022-11-15T19:26:20.023Z,91.60
2022-11-15T19:28:54.142Z,30.20
2022-11-15T19:31:27.037Z,24.30
2022-11-15T19:33:59.676Z,22.10
2022-11-15T19:36:33.588Z,20.40
2022-11-15T19:39:09.215Z,18.50
2022-11-15T19:41:42.865Z,20.40
2022-11-15T19:44:14.974Z,22.30
2022-11-15T19:46:46.576Z,23.20
2022-11-15T19:49:17.684Z,23.00
2022-11-15T19:51:49.289Z,19.90
2022-11-15T19:54:20.183Z,19.30
2022-11-15T19:59:21.780Z,18.30
2022-11-15T20:01:52.676Z,18.20
2022-11-15T20:04:23.536Z,19.20
2022-11-15T20:09:25.965Z,18.20
2022-11-15T20:11:58.763Z,17.80
2022-11-15T20:14:30.430Z,21.00
2022-11-15T20:17:01.263Z,18.90
2022-11-15T20:19:32.212Z,14.20
2022-11-15T20:22:03.196Z,18.50
2022-11-15T20:27:03.765Z,18.50
2022-11-15T20:32:04.124Z,16.80
2022-11-15T20:34:35.314Z,20.20
2022-11-15T20:37:06.492Z,19.90
2022-11-15T20:39:37.798Z,18.80
2022-11-15T20:42:09.467Z,18.30
2022-11-15T20:44:40.334Z,18.30
2022-11-15T20:49:40.533Z,16.70
2022-11-15T20:52:11.479Z,19.60
2022-11-15T20:54:42.482Z,16.40
2022-11-15T20:57:13.205Z,19.50
2022-11-15T20:59:44.584Z,20.50
2022-11-15T21:02:16.557Z,22.20
2022-11-15T21:04:48.203Z,21.50
2022-11-15T21:10:12.023Z,20.10
2022-11-15T21:12:42.900Z,19.70
2022-11-15T21:15:14.151Z,21.60
2022-11-15T21:17:45.235Z,18.90
2022-11-15T21:20:16.831Z,25.60
2022-11-15T21:22:48.677Z,23.50
2022-11-15T21:25:19.895Z,24.00
2022-11-15T21:27:51.627Z,19.40
2022-11-15T21:30:22.829Z,19.00
2022-11-15T21:32:53.766Z,18.20
2022-11-15T21:35:24.837Z,23.70
2022-11-15T21:40:28.457Z,20.80
2022-11-15T21:42:59.248Z,20.50
2022-11-15T21:45:30.110Z,20.90
2022-11-15T21:48:00.807Z,20.80
2022-11-15T21:53:01.577Z,19.40
2022-11-15T21:55:32.544Z,18.10
2022-11-15T21:58:03.497Z,19.70
2022-11-15T22:00:52.321Z,18.70
2022-11-15T22:03:23.287Z,19.70
2022-11-15T22:05:54.258Z,19.00
2022-11-15T22:08:25.413Z,19.40
2022-11-15T22:10:56.961Z,17.90
2022-11-15T22:13:28.701Z,19.80
2022-11-15T22:15:59.800Z,18.60
2022-11-15T22:18:30.994Z,19.40
2022-11-15T22:21:05.356Z,22.60
2022-11-15T22:23:37.319Z,22.90
2022-11-15T22:26:09.277Z,20.20
2022-11-15T22:28:40.800Z,23.00
2022-11-15T22:31:12.409Z,18.70
2022-11-15T22:33:43.838Z,18.80
2022-11-15T22:36:15.378Z,19.80
2022-11-15T22:38:46.725Z,17.60
2022-11-15T22:43:48.295Z,18.70
2022-11-15T22:46:19.200Z,18.20
2022-11-15T22:48:50.273Z,18.60
2022-11-15T22:51:21.609Z,17.70
2022-11-15T22:53:52.750Z,19.00
2022-11-15T22:58:52.943Z,17.20
2022-11-15T23:01:24.349Z,18.60
2022-11-15T23:03:55.484Z,18.10
2022-11-15T23:08:55.905Z,16.90
2022-11-15T23:11:46.623Z,18.20
2022-11-15T23:14:17.395Z,17.50
2022-11-15T23:16:49.013Z,16.70
2022-11-15T23:19:20.043Z,17.90
2022-11-15T23:24:38.099Z,17.30
2022-11-15T23:27:10.742Z,16.50
2022-11-15T23:29:56.113Z,18.70
2022-11-15T23:32:44.644Z,17.50
2022-11-15T23:35:15.795Z,18.10
2022-11-15T23:40:16.669Z,18.40
2022-11-15T23:42:47.654Z,16.20
2022-11-15T23:47:48.623Z,16.50
2022-11-15T23:50:20.027Z,17.30
2022-11-15T23:52:51.091Z,17.60
2022-11-15T23:55:22.101Z,16.40
